sensor_id;sensor_type;location;lat;lon;timestamp;temperature;humidity
63537;DHT22;49686;51.880;5.632;2024-03-17T00:01:39;4.70;99.90
63537;DHT22;49686;51.880;5.632;2024-03-17T00:04:07;4.70;99.90
63537;DHT22;49686;51.880;5.632;2024-03-17T00:06:33;4.80;99.90
63537;DHT22;49686;51.880;5.632;2024-03-17T00:09:00;4.80;99.90
63537;DHT22;49686;51.880;5.632;2024-03-17T00:11:32;4.80;99.90
63537;DHT22;49686;51.880;5.632;2024-03-17T00:14:01;4.80;99.90
63537;DHT22;49686;51.880;5.632;2024-03-17T00:16:27;4.80;99.90
63537;DHT22;49686;51.880;5.632;2024-03-17T00:18:54;4.80;99.90
63537;DHT22;49686;51.880;5.632;2024-03-17T00:21:21;4.80;99.90
63537;DHT22;49686;51.880;5.632;2024-03-17T00:23:49;4.80;99.90
63537;DHT22;49686;51.880;5.632;2024-03-17T00:26:15;4.80;99.90
63537;DHT22;49686;51.880;5.632;2024-03-17T00:28:42;4.80;99.90
63537;DHT22;49686;51.880;5.632;2024-03-17T00:31:12;4.80;99.90
63537;DHT22;49686;51.880;5.632;2024-03-17T00:33:40;4.90;99.90
63537;DHT22;49686;51.880;5.632;2024-03-17T00:36:07;4.90;99.90
63537;DHT22;49686;51.880;5.632;2024-03-17T00:38:33;4.90;99.90
63537;DHT22;49686;51.880;5.632;2024-03-17T00:41:02;5.00;99.90
63537;DHT22;49686;51.880;5.632;2024-03-17T00:43:29;5.00;99.90
63537;DHT22;49686;51.880;5.632;2024-03-17T00:45:54;5.00;99.90
63537;DHT22;49686;51.880;5.632;2024-03-17T00:48:21;5.00;99.90
63537;DHT22;49686;51.880;5.632;2024-03-17T00:50:57;5.00;99.90
63537;DHT22;49686;51.880;5.632;2024-03-17T00:53:25;4.90;99.90
63537;DHT22;49686;51.880;5.632;2024-03-17T00:55:55;4.90;99.90
63537;DHT22;49686;51.880;5.632;2024-03-17T00:58:23;4.80;99.90
63537;DHT22;49686;51.880;5.632;2024-03-17T01:00:50;4.80;99.90
63537;DHT22;49686;51.880;5.632;2024-03-17T01:03:17;4.80;99.90
63537;DHT22;49686;51.880;5.632;2024-03-17T01:05:44;4.70;99.90
63537;DHT22;49686;51.880;5.632;2024-03-17T01:08:14;4.70;99.90
63537;DHT22;49686;51.880;5.632;2024-03-17T01:10:41;4.70;99.90
63537;DHT22;49686;51.880;5.632;2024-03-17T01:13:08;4.60;99.90
63537;DHT22;49686;51.880;5.632;2024-03-17T01:15:36;4.60;99.90
63537;DHT22;49686;51.880;5.632;2024-03-17T01:18:06;4.50;99.90
63537;DHT22;49686;51.880;5.632;2024-03-17T01:20:34;4.50;99.90
63537;DHT22;49686;51.880;5.632;2024-03-17T01:23:01;4.50;99.90
63537;DHT22;49686;51.880;5.632;2024-03-17T01:25:28;4.50;99.90
63537;DHT22;49686;51.880;5.632;2024-03-17T01:27:55;4.50;99.90
63537;DHT22;49686;51.880;5.632;2024-03-17T01:30:23;4.50;99.90
63537;DHT22;49686;51.880;5.632;2024-03-17T01:32:51;4.50;99.90
63537;DHT22;49686;51.880;5.632;2024-03-17T01:35:17;4.60;99.90
63537;DHT22;49686;51.880;5.632;2024-03-17T01:37:44;4.60;99.90
63537;DHT22;49686;51.880;5.632;2024-03-17T01:40:11;4.60;99.90
63537;DHT22;49686;51.880;5.632;2024-03-17T01:42:38;4.60;99.90
63537;DHT22;49686;51.880;5.632;2024-03-17T01:47:44;4.60;99.90
63537;DHT22;49686;51.880;5.632;2024-03-17T01:50:10;4.60;99.90
63537;DHT22;49686;51.880;5.632;2024-03-17T01:52:39;4.60;99.90
63537;DHT22;49686;51.880;5.632;2024-03-17T01:55:05;4.50;99.90
63537;DHT22;49686;51.880;5.632;2024-03-17T01:57:33;4.50;99.90
63537;DHT22;49686;51.880;5.632;2024-03-17T02:00:00;4.40;99.90
63537;DHT22;49686;51.880;5.632;2024-03-17T02:02:26;4.40;99.90
63537;DHT22;49686;51.880;5.632;2024-03-17T02:04:53;4.40;99.90
63537;DHT22;49686;51.880;5.632;2024-03-17T02:07:19;4.40;99.90
63537;DHT22;49686;51.880;5.632;2024-03-17T02:09:46;4.50;99.90
63537;DHT22;49686;51.880;5.632;2024-03-17T02:12:12;4.50;99.90
63537;DHT22;49686;51.880;5.632;2024-03-17T02:14:39;4.50;99.90
63537;DHT22;49686;51.880;5.632;2024-03-17T02:17:05;4.50;99.90
63537;DHT22;49686;51.880;5.632;2024-03-17T02:19:31;4.50;99.90
63537;DHT22;49686;51.880;5.632;2024-03-17T02:21:57;4.60;99.90
63537;DHT22;49686;51.880;5.632;2024-03-17T02:24:24;4.60;99.90
63537;DHT22;49686;51.880;5.632;2024-03-17T02:26:50;4.60;99.90
63537;DHT22;49686;51.880;5.632;2024-03-17T02:29:17;4.70;99.90
63537;DHT22;49686;51.880;5.632;2024-03-17T02:31:43;4.70;99.90
63537;DHT22;49686;51.880;5.632;2024-03-17T02:34:10;4.80;99.90
63537;DHT22;49686;51.880;5.632;2024-03-17T02:36:36;4.80;99.90
63537;DHT22;49686;51.880;5.632;2024-03-17T02:39:02;4.80;99.90
63537;DHT22;49686;51.880;5.632;2024-03-17T02:41:47;4.90;99.90
63537;DHT22;49686;51.880;5.632;2024-03-17T02:44:13;5.00;99.90
63537;DHT22;49686;51.880;5.632;2024-03-17T02:46:39;5.00;99.90
63537;DHT22;49686;51.880;5.632;2024-03-17T02:49:06;5.20;99.90
63537;DHT22;49686;51.880;5.632;2024-03-17T02:51:39;5.20;99.90
63537;DHT22;49686;51.880;5.632;2024-03-17T02:54:06;5.30;99.90
63537;DHT22;49686;51.880;5.632;2024-03-17T02:56:33;5.30;99.90
63537;DHT22;49686;51.880;5.632;2024-03-17T02:59:00;5.40;99.90
63537;DHT22;49686;51.880;5.632;2024-03-17T03:01:27;5.50;99.90
63537;DHT22;49686;51.880;5.632;2024-03-17T03:03:53;5.50;99.90
63537;DHT22;49686;51.880;5.632;2024-03-17T03:06:20;5.60;99.90
63537;DHT22;49686;51.880;5.632;2024-03-17T03:08:48;5.60;99.90
63537;DHT22;49686;51.880;5.632;2024-03-17T03:11:16;5.60;99.90
63537;DHT22;49686;51.880;5.632;2024-03-17T03:13:43;5.70;99.90
63537;DHT22;49686;51.880;5.632;2024-03-17T03:16:12;5.70;99.90
63537;DHT22;49686;51.880;5.632;2024-03-17T03:18:40;5.70;99.90
63537;DHT22;49686;51.880;5.632;2024-03-17T03:21:07;5.80;99.90
63537;DHT22;49686;51.880;5.632;2024-03-17T03:23:34;5.90;99.90
63537;DHT22;49686;51.880;5.632;2024-03-17T03:26:02;5.90;99.90
63537;DHT22;49686;51.880;5.632;2024-03-17T03:28:32;5.90;99.90
63537;DHT22;49686;51.880;5.632;2024-03-17T03:30:59;6.00;99.90
63537;DHT22;49686;51.880;5.632;2024-03-17T03:33:27;6.10;99.90
63537;DHT22;49686;51.880;5.632;2024-03-17T03:35:54;6.20;99.90
63537;DHT22;49686;51.880;5.632;2024-03-17T03:38:22;6.20;99.90
63537;DHT22;49686;51.880;5.632;2024-03-17T03:40:49;6.20;99.90
63537;DHT22;49686;51.880;5.632;2024-03-17T03:43:18;6.30;99.90
63537;DHT22;49686;51.880;5.632;2024-03-17T03:45:45;6.30;99.90
63537;DHT22;49686;51.880;5.632;2024-03-17T03:48:11;6.40;99.90
63537;DHT22;49686;51.880;5.632;2024-03-17T03:50:40;6.40;99.90
63537;DHT22;49686;51.880;5.632;2024-03-17T03:53:07;6.40;99.90
63537;DHT22;49686;51.880;5.632;2024-03-17T03:55:34;6.40;99.90
63537;DHT22;49686;51.880;5.632;2024-03-17T03:58:00;6.40;99.90
63537;DHT22;49686;51.880;5.632;2024-03-17T04:00:29;6.40;99.90
63537;DHT22;49686;51.880;5.632;2024-03-17T04:02:58;6.40;99.90
63537;DHT22;49686;51.880;5.632;2024-03-17T04:05:25;6.30;99.90
63537;DHT22;49686;51.880;5.632;2024-03-17T04:07:52;6.30;99.90
63537;DHT22;49686;51.880;5.632;2024-03-17T04:10:19;6.40;99.90
63537;DHT22;49686;51.880;5.632;2024-03-17T04:12:47;6.30;99.90
63537;DHT22;49686;51.880;5.632;2024-03-17T04:15:14;6.30;99.90
63537;DHT22;49686;51.880;5.632;2024-03-17T04:17:41;6.30;99.90
63537;DHT22;49686;51.880;5.632;2024-03-17T04:20:09;6.20;99.90
63537;DHT22;49686;51.880;5.632;2024-03-17T04:22:40;6.20;99.90
63537;DHT22;49686;51.880;5.632;2024-03-17T04:25:09;6.20;99.90
63537;DHT22;49686;51.880;5.632;2024-03-17T04:27:36;6.10;99.90
63537;DHT22;49686;51.880;5.632;2024-03-17T04:30:05;6.10;99.90
63537;DHT22;49686;51.880;5.632;2024-03-17T04:32:32;6.10;99.90
63537;DHT22;49686;51.880;5.632;2024-03-17T04:35:00;6.00;99.90
63537;DHT22;49686;51.880;5.632;2024-03-17T04:37:28;5.90;99.90
63537;DHT22;49686;51.880;5.632;2024-03-17T04:39:55;5.90;99.90
63537;DHT22;49686;51.880;5.632;2024-03-17T04:42:24;5.90;99.90
63537;DHT22;49686;51.880;5.632;2024-03-17T04:44:51;5.80;99.90
63537;DHT22;49686;51.880;5.632;2024-03-17T04:47:18;5.80;99.90
63537;DHT22;49686;51.880;5.632;2024-03-17T04:49:45;5.70;99.90
63537;DHT22;49686;51.880;5.632;2024-03-17T04:52:13;5.70;99.90
63537;DHT22;49686;51.880;5.632;2024-03-17T04:54:42;5.70;99.90
63537;DHT22;49686;51.880;5.632;2024-03-17T04:57:09;5.70;99.90
63537;DHT22;49686;51.880;5.632;2024-03-17T04:59:36;5.70;99.90
63537;DHT22;49686;51.880;5.632;2024-03-17T05:02:04;5.70;99.90
63537;DHT22;49686;51.880;5.632;2024-03-17T05:04:31;5.70;99.90
63537;DHT22;49686;51.880;5.632;2024-03-17T05:06:57;5.70;99.90
63537;DHT22;49686;51.880;5.632;2024-03-17T05:09:24;5.80;99.90
63537;DHT22;49686;51.880;5.632;2024-03-17T05:11:51;5.80;99.90
63537;DHT22;49686;51.880;5.632;2024-03-17T05:14:18;5.80;99.90
63537;DHT22;49686;51.880;5.632;2024-03-17T05:16:49;5.80;99.90
63537;DHT22;49686;51.880;5.632;2024-03-17T05:19:16;5.90;99.90
63537;DHT22;49686;51.880;5.632;2024-03-17T05:21:45;5.90;99.90
63537;DHT22;49686;51.880;5.632;2024-03-17T05:24:12;6.00;99.90
63537;DHT22;49686;51.880;5.632;2024-03-17T05:26:39;6.00;99.90
63537;DHT22;49686;51.880;5.632;2024-03-17T05:29:07;6.00;99.90
63537;DHT22;49686;51.880;5.632;2024-03-17T05:31:34;6.00;99.90
63537;DHT22;49686;51.880;5.632;2024-03-17T05:34:01;6.10;99.90
63537;DHT22;49686;51.880;5.632;2024-03-17T05:36:28;6.10;99.90
63537;DHT22;49686;51.880;5.632;2024-03-17T05:38:58;6.20;99.90
63537;DHT22;49686;51.880;5.632;2024-03-17T05:41:25;6.20;99.90
63537;DHT22;49686;51.880;5.632;2024-03-17T05:43:53;6.20;99.90
63537;DHT22;49686;51.880;5.632;2024-03-17T05:46:24;6.20;99.90
63537;DHT22;49686;51.880;5.632;2024-03-17T05:48:52;6.20;99.90
63537;DHT22;49686;51.880;5.632;2024-03-17T05:51:19;6.20;99.90
63537;DHT22;49686;51.880;5.632;2024-03-17T05:53:46;6.30;99.90
63537;DHT22;49686;51.880;5.632;2024-03-17T05:56:13;6.20;99.90
63537;DHT22;49686;51.880;5.632;2024-03-17T05:58:41;6.20;99.90
63537;DHT22;49686;51.880;5.632;2024-03-17T06:01:09;6.20;99.90
63537;DHT22;49686;51.880;5.632;2024-03-17T06:03:37;6.20;99.90
63537;DHT22;49686;51.880;5.632;2024-03-17T06:06:05;6.20;99.90
63537;DHT22;49686;51.880;5.632;2024-03-17T06:08:33;6.20;99.90
63537;DHT22;49686;51.880;5.632;2024-03-17T06:11:00;6.20;99.90
63537;DHT22;49686;51.880;5.632;2024-03-17T06:13:27;6.20;99.90
63537;DHT22;49686;51.880;5.632;2024-03-17T06:15:55;6.20;99.90
63537;DHT22;49686;51.880;5.632;2024-03-17T06:18:27;6.20;99.90
63537;DHT22;49686;51.880;5.632;2024-03-17T06:20:54;6.10;99.90
63537;DHT22;49686;51.880;5.632;2024-03-17T06:23:23;6.10;99.90
63537;DHT22;49686;51.880;5.632;2024-03-17T06:25:52;6.10;99.90
63537;DHT22;49686;51.880;5.632;2024-03-17T06:28:20;6.20;99.90
63537;DHT22;49686;51.880;5.632;2024-03-17T06:30:55;6.20;99.90
63537;DHT22;49686;51.880;5.632;2024-03-17T06:33:25;6.30;99.90
63537;DHT22;49686;51.880;5.632;2024-03-17T06:35:52;6.30;99.90
63537;DHT22;49686;51.880;5.632;2024-03-17T06:38:19;6.30;99.90
63537;DHT22;49686;51.880;5.632;2024-03-17T06:40:53;6.40;99.90
63537;DHT22;49686;51.880;5.632;2024-03-17T06:43:20;6.40;99.90
63537;DHT22;49686;51.880;5.632;2024-03-17T06:45:58;6.50;99.90
63537;DHT22;49686;51.880;5.632;2024-03-17T06:48:26;6.60;99.90
63537;DHT22;49686;51.880;5.632;2024-03-17T06:50:54;6.70;99.90
63537;DHT22;49686;51.880;5.632;2024-03-17T06:53:21;6.70;99.90
63537;DHT22;49686;51.880;5.632;2024-03-17T06:56:07;6.80;99.90
63537;DHT22;49686;51.880;5.632;2024-03-17T06:58:34;6.90;99.90
63537;DHT22;49686;51.880;5.632;2024-03-17T07:01:02;7.10;99.90
63537;DHT22;49686;51.880;5.632;2024-03-17T07:03:30;7.30;99.90
63537;DHT22;49686;51.880;5.632;2024-03-17T07:05:59;7.50;99.90
63537;DHT22;49686;51.880;5.632;2024-03-17T07:08:28;7.80;99.90
63537;DHT22;49686;51.880;5.632;2024-03-17T07:11:06;8.00;99.90
63537;DHT22;49686;51.880;5.632;2024-03-17T07:13:37;8.20;99.90
63537;DHT22;49686;51.880;5.632;2024-03-17T07:16:05;8.20;99.90
63537;DHT22;49686;51.880;5.632;2024-03-17T07:18:33;8.20;99.90
63537;DHT22;49686;51.880;5.632;2024-03-17T07:21:04;8.20;99.90
63537;DHT22;49686;51.880;5.632;2024-03-17T07:23:31;8.20;99.90
63537;DHT22;49686;51.880;5.632;2024-03-17T07:26:00;8.20;99.90
63537;DHT22;49686;51.880;5.632;2024-03-17T07:28:28;8.20;99.90
63537;DHT22;49686;51.880;5.632;2024-03-17T07:30:56;8.40;99.90
63537;DHT22;49686;51.880;5.632;2024-03-17T07:33:24;8.60;99.90
63537;DHT22;49686;51.880;5.632;2024-03-17T07:35:54;8.70;99.90
63537;DHT22;49686;51.880;5.632;2024-03-17T07:38:23;8.90;99.90
63537;DHT22;49686;51.880;5.632;2024-03-17T07:41:01;9.00;99.90
63537;DHT22;49686;51.880;5.632;2024-03-17T07:43:30;9.10;99.90
63537;DHT22;49686;51.880;5.632;2024-03-17T07:46:02;9.10;99.90
63537;DHT22;49686;51.880;5.632;2024-03-17T07:48:30;9.00;99.90
63537;DHT22;49686;51.880;5.632;2024-03-17T07:50:59;9.10;99.90
63537;DHT22;49686;51.880;5.632;2024-03-17T07:53:29;9.20;99.90
63537;DHT22;49686;51.880;5.632;2024-03-17T07:56:00;9.30;99.90
63537;DHT22;49686;51.880;5.632;2024-03-17T07:58:30;9.40;99.90
63537;DHT22;49686;51.880;5.632;2024-03-17T08:01:03;9.70;99.90
63537;DHT22;49686;51.880;5.632;2024-03-17T08:03:32;10.00;99.90
63537;DHT22;49686;51.880;5.632;2024-03-17T08:05:59;10.40;99.90
63537;DHT22;49686;51.880;5.632;2024-03-17T08:08:27;10.80;99.90
63537;DHT22;49686;51.880;5.632;2024-03-17T08:10:54;11.20;99.90
63537;DHT22;49686;51.880;5.632;2024-03-17T08:13:21;11.30;99.90
63537;DHT22;49686;51.880;5.632;2024-03-17T08:16:02;11.30;99.90
63537;DHT22;49686;51.880;5.632;2024-03-17T08:18:32;11.20;99.90
63537;DHT22;49686;51.880;5.632;2024-03-17T08:21:00;11.00;99.90
63537;DHT22;49686;51.880;5.632;2024-03-17T08:23:29;10.90;99.90
63537;DHT22;49686;51.880;5.632;2024-03-17T08:25:58;10.70;99.90
63537;DHT22;49686;51.880;5.632;2024-03-17T08:28:26;10.70;99.90
63537;DHT22;49686;51.880;5.632;2024-03-17T08:30:58;10.60;99.90
63537;DHT22;49686;51.880;5.632;2024-03-17T08:33:25;10.70;99.90
63537;DHT22;49686;51.880;5.632;2024-03-17T08:36:06;10.80;99.90
63537;DHT22;49686;51.880;5.632;2024-03-17T08:38:34;10.90;99.90
63537;DHT22;49686;51.880;5.632;2024-03-17T08:41:03;10.80;99.90
63537;DHT22;49686;51.880;5.632;2024-03-17T08:43:31;10.80;99.90
63537;DHT22;49686;51.880;5.632;2024-03-17T08:46:02;10.70;99.90
63537;DHT22;49686;51.880;5.632;2024-03-17T08:48:40;10.60;99.90
63537;DHT22;49686;51.880;5.632;2024-03-17T08:51:08;10.50;99.90
63537;DHT22;49686;51.880;5.632;2024-03-17T08:53:36;10.50;99.90
63537;DHT22;49686;51.880;5.632;2024-03-17T08:56:05;10.60;99.90
63537;DHT22;49686;51.880;5.632;2024-03-17T08:58:33;10.70;99.90
63537;DHT22;49686;51.880;5.632;2024-03-17T09:01:05;10.60;99.90
63537;DHT22;49686;51.880;5.632;2024-03-17T09:03:36;10.50;99.90
63537;DHT22;49686;51.880;5.632;2024-03-17T09:06:03;10.50;99.90
63537;DHT22;49686;51.880;5.632;2024-03-17T09:08:30;10.60;99.90
63537;DHT22;49686;51.880;5.632;2024-03-17T09:10:58;10.70;99.90
63537;DHT22;49686;51.880;5.632;2024-03-17T09:13:25;10.90;99.90
63537;DHT22;49686;51.880;5.632;2024-03-17T09:15:59;11.00;99.90
63537;DHT22;49686;51.880;5.632;2024-03-17T09:18:33;11.10;99.90
63537;DHT22;49686;51.880;5.632;2024-03-17T09:21:01;11.10;99.90
63537;DHT22;49686;51.880;5.632;2024-03-17T09:23:29;11.20;99.90
63537;DHT22;49686;51.880;5.632;2024-03-17T09:26:01;11.40;99.90
63537;DHT22;49686;51.880;5.632;2024-03-17T09:28:29;11.50;99.90
63537;DHT22;49686;51.880;5.632;2024-03-17T09:30:57;11.50;99.90
63537;DHT22;49686;51.880;5.632;2024-03-17T09:33:25;11.50;99.90
63537;DHT22;49686;51.880;5.632;2024-03-17T09:35:59;11.50;99.90
63537;DHT22;49686;51.880;5.632;2024-03-17T09:38:29;11.50;99.90
63537;DHT22;49686;51.880;5.632;2024-03-17T09:40:56;11.50;99.90
63537;DHT22;49686;51.880;5.632;2024-03-17T09:43:26;11.50;99.90
63537;DHT22;49686;51.880;5.632;2024-03-17T09:45:53;11.50;99.90
63537;DHT22;49686;51.880;5.632;2024-03-17T09:48:24;11.50;99.90
63537;DHT22;49686;51.880;5.632;2024-03-17T09:50:54;11.60;99.90
63537;DHT22;49686;51.880;5.632;2024-03-17T09:53:28;11.70;99.90
63537;DHT22;49686;51.880;5.632;2024-03-17T09:56:03;11.80;99.90
63537;DHT22;49686;51.880;5.632;2024-03-17T09:58:32;11.90;99.90
63537;DHT22;49686;51.880;5.632;2024-03-17T10:01:00;11.90;99.90
63537;DHT22;49686;51.880;5.632;2024-03-17T10:03:46;11.90;99.90
63537;DHT22;49686;51.880;5.632;2024-03-17T10:06:21;11.90;99.90
63537;DHT22;49686;51.880;5.632;2024-03-17T10:08:50;12.00;99.90
63537;DHT22;49686;51.880;5.632;2024-03-17T10:11:18;12.20;99.90
63537;DHT22;49686;51.880;5.632;2024-03-17T10:14:00;12.40;99.90
63537;DHT22;49686;51.880;5.632;2024-03-17T10:16:30;12.60;99.90
63537;DHT22;49686;51.880;5.632;2024-03-17T10:19:21;12.70;99.90
63537;DHT22;49686;51.880;5.632;2024-03-17T10:21:49;12.80;99.90
63537;DHT22;49686;51.880;5.632;2024-03-17T10:24:21;12.90;99.90
63537;DHT22;49686;51.880;5.632;2024-03-17T10:26:52;12.90;99.90
63537;DHT22;49686;51.880;5.632;2024-03-17T10:29:21;12.90;99.90
63537;DHT22;49686;51.880;5.632;2024-03-17T10:31:55;12.90;99.90
63537;DHT22;49686;51.880;5.632;2024-03-17T10:34:24;12.70;99.90
63537;DHT22;49686;51.880;5.632;2024-03-17T10:37:13;12.80;99.90
63537;DHT22;49686;51.880;5.632;2024-03-17T10:39:42;13.00;99.90
63537;DHT22;49686;51.880;5.632;2024-03-17T10:42:11;13.00;99.90
63537;DHT22;49686;51.880;5.632;2024-03-17T10:44:41;13.10;99.90
63537;DHT22;49686;51.880;5.632;2024-03-17T10:47:21;13.10;99.90
63537;DHT22;49686;51.880;5.632;2024-03-17T10:49:50;12.90;99.90
63537;DHT22;49686;51.880;5.632;2024-03-17T10:52:19;13.10;99.90
63537;DHT22;49686;51.880;5.632;2024-03-17T10:54:51;13.30;99.90
63537;DHT22;49686;51.880;5.632;2024-03-17T10:59:52;13.60;99.90
63537;DHT22;49686;51.880;5.632;2024-03-17T11:02:24;13.60;99.90
63537;DHT22;49686;51.880;5.632;2024-03-17T11:04:53;13.70;99.90
63537;DHT22;49686;51.880;5.632;2024-03-17T11:07:21;13.60;99.90
63537;DHT22;49686;51.880;5.632;2024-03-17T11:09:51;13.60;99.90
63537;DHT22;49686;51.880;5.632;2024-03-17T11:12:50;13.70;99.90
63537;DHT22;49686;51.880;5.632;2024-03-17T11:17:51;13.50;99.90
63537;DHT22;49686;51.880;5.632;2024-03-17T11:20:24;13.60;99.90
63537;DHT22;49686;51.880;5.632;2024-03-17T11:22:56;13.50;99.90
63537;DHT22;49686;51.880;5.632;2024-03-17T11:30:42;13.70;99.90
63537;DHT22;49686;51.880;5.632;2024-03-17T11:39:03;14.00;99.90
63537;DHT22;49686;51.880;5.632;2024-03-17T11:41:38;14.00;99.90
63537;DHT22;49686;51.880;5.632;2024-03-17T11:44:24;14.10;99.90
63537;DHT22;49686;51.880;5.632;2024-03-17T11:46:53;14.10;99.90
63537;DHT22;49686;51.880;5.632;2024-03-17T11:49:20;14.10;99.90
63537;DHT22;49686;51.880;5.632;2024-03-17T11:51:49;14.00;99.90
63537;DHT22;49686;51.880;5.632;2024-03-17T11:54:20;13.90;99.90
63537;DHT22;49686;51.880;5.632;2024-03-17T11:56:49;13.70;99.90
63537;DHT22;49686;51.880;5.632;2024-03-17T11:59:16;13.60;99.90
63537;DHT22;49686;51.880;5.632;2024-03-17T12:01:51;13.50;99.90
63537;DHT22;49686;51.880;5.632;2024-03-17T12:04:19;13.40;99.90
63537;DHT22;49686;51.880;5.632;2024-03-17T12:12:02;13.40;99.90
63537;DHT22;49686;51.880;5.632;2024-03-17T12:14:31;13.60;99.90
63537;DHT22;49686;51.880;5.632;2024-03-17T12:16:59;13.80;99.90
63537;DHT22;49686;51.880;5.632;2024-03-17T12:19:27;14.00;99.90
63537;DHT22;49686;51.880;5.632;2024-03-17T12:21:55;14.10;99.90
63537;DHT22;49686;51.880;5.632;2024-03-17T12:24:29;14.20;99.90
63537;DHT22;49686;51.880;5.632;2024-03-17T12:26:56;14.10;99.90
63537;DHT22;49686;51.880;5.632;2024-03-17T12:29:36;14.10;99.90
63537;DHT22;49686;51.880;5.632;2024-03-17T12:34:37;14.40;99.90
63537;DHT22;49686;51.880;5.632;2024-03-17T12:37:04;14.30;99.90
63537;DHT22;49686;51.880;5.632;2024-03-17T12:39:33;14.10;99.90
63537;DHT22;49686;51.880;5.632;2024-03-17T12:44:38;13.80;99.90
63537;DHT22;49686;51.880;5.632;2024-03-17T12:47:11;13.80;99.90
63537;DHT22;49686;51.880;5.632;2024-03-17T12:55:04;13.60;99.90
63537;DHT22;49686;51.880;5.632;2024-03-17T12:57:47;13.70;99.90
63537;DHT22;49686;51.880;5.632;2024-03-17T13:00:34;13.70;99.90
63537;DHT22;49686;51.880;5.632;2024-03-17T13:03:05;13.70;99.90
63537;DHT22;49686;51.880;5.632;2024-03-17T13:05:34;13.70;99.90
63537;DHT22;49686;51.880;5.632;2024-03-17T13:08:01;13.70;99.90
63537;DHT22;49686;51.880;5.632;2024-03-17T13:10:29;13.70;99.90
63537;DHT22;49686;51.880;5.632;2024-03-17T13:13:02;13.70;99.90
63537;DHT22;49686;51.880;5.632;2024-03-17T13:15:30;13.70;99.90
63537;DHT22;49686;51.880;5.632;2024-03-17T13:17:58;13.70;99.90
63537;DHT22;49686;51.880;5.632;2024-03-17T13:20:26;13.70;99.90
63537;DHT22;49686;51.880;5.632;2024-03-17T13:22:53;13.70;99.90
63537;DHT22;49686;51.880;5.632;2024-03-17T13:25:22;13.60;99.90
63537;DHT22;49686;51.880;5.632;2024-03-17T13:27:52;13.60;99.90
63537;DHT22;49686;51.880;5.632;2024-03-17T13:30:21;13.50;99.90
63537;DHT22;49686;51.880;5.632;2024-03-17T13:32:48;13.50;99.90
63537;DHT22;49686;51.880;5.632;2024-03-17T13:35:22;13.50;99.90
63537;DHT22;49686;51.880;5.632;2024-03-17T13:37:50;13.50;99.90
63537;DHT22;49686;51.880;5.632;2024-03-17T13:40:21;13.50;99.90
63537;DHT22;49686;51.880;5.632;2024-03-17T13:42:53;13.60;99.90
63537;DHT22;49686;51.880;5.632;2024-03-17T13:45:22;13.60;99.90
63537;DHT22;49686;51.880;5.632;2024-03-17T13:47:57;13.70;99.90
63537;DHT22;49686;51.880;5.632;2024-03-17T13:50:24;13.70;99.90
63537;DHT22;49686;51.880;5.632;2024-03-17T13:52:52;13.70;99.90
63537;DHT22;49686;51.880;5.632;2024-03-17T13:55:20;13.70;99.90
63537;DHT22;49686;51.880;5.632;2024-03-17T13:57:51;13.80;99.90
63537;DHT22;49686;51.880;5.632;2024-03-17T14:00:20;13.90;99.90
63537;DHT22;49686;51.880;5.632;2024-03-17T14:02:49;13.90;99.90
63537;DHT22;49686;51.880;5.632;2024-03-17T14:05:17;14.00;99.90
63537;DHT22;49686;51.880;5.632;2024-03-17T14:07:44;14.00;99.90
63537;DHT22;49686;51.880;5.632;2024-03-17T14:10:17;14.00;99.90
63537;DHT22;49686;51.880;5.632;2024-03-17T14:12:44;13.90;99.90
63537;DHT22;49686;51.880;5.632;2024-03-17T14:15:12;13.80;99.90
63537;DHT22;49686;51.880;5.632;2024-03-17T14:17:42;13.80;99.90
63537;DHT22;49686;51.880;5.632;2024-03-17T14:20:09;13.90;99.90
63537;DHT22;49686;51.880;5.632;2024-03-17T14:22:37;14.00;99.90
63537;DHT22;49686;51.880;5.632;2024-03-17T14:25:05;14.10;99.90
63537;DHT22;49686;51.880;5.632;2024-03-17T14:27:33;14.20;99.90
63537;DHT22;49686;51.880;5.632;2024-03-17T14:30:01;14.40;99.90
63537;DHT22;49686;51.880;5.632;2024-03-17T14:32:30;14.50;99.90
63537;DHT22;49686;51.880;5.632;2024-03-17T14:34:57;14.50;99.90
63537;DHT22;49686;51.880;5.632;2024-03-17T14:37:25;14.60;99.90
63537;DHT22;49686;51.880;5.632;2024-03-17T14:39:53;14.80;99.90
63537;DHT22;49686;51.880;5.632;2024-03-17T14:42:20;14.80;99.90
63537;DHT22;49686;51.880;5.632;2024-03-17T14:44:48;14.80;99.90
63537;DHT22;49686;51.880;5.632;2024-03-17T14:47:15;14.70;99.90
63537;DHT22;49686;51.880;5.632;2024-03-17T14:49:43;14.70;99.90
63537;DHT22;49686;51.880;5.632;2024-03-17T14:52:11;14.60;99.90
63537;DHT22;49686;51.880;5.632;2024-03-17T14:54:38;14.50;99.90
63537;DHT22;49686;51.880;5.632;2024-03-17T14:57:05;14.50;99.90
63537;DHT22;49686;51.880;5.632;2024-03-17T14:59:32;14.50;99.90
63537;DHT22;49686;51.880;5.632;2024-03-17T15:01:59;14.50;99.90
63537;DHT22;49686;51.880;5.632;2024-03-17T15:04:26;14.50;99.90
63537;DHT22;49686;51.880;5.632;2024-03-17T15:06:55;14.40;99.90
63537;DHT22;49686;51.880;5.632;2024-03-17T15:09:22;14.40;99.90
63537;DHT22;49686;51.880;5.632;2024-03-17T15:11:49;14.40;99.90
63537;DHT22;49686;51.880;5.632;2024-03-17T15:14:16;14.50;99.90
63537;DHT22;49686;51.880;5.632;2024-03-17T15:16:43;14.40;99.90
63537;DHT22;49686;51.880;5.632;2024-03-17T15:19:11;14.40;99.90
63537;DHT22;49686;51.880;5.632;2024-03-17T15:21:38;14.40;99.90
63537;DHT22;49686;51.880;5.632;2024-03-17T15:24:05;14.40;99.90
63537;DHT22;49686;51.880;5.632;2024-03-17T15:26:32;14.50;99.90
63537;DHT22;49686;51.880;5.632;2024-03-17T15:28:59;14.40;99.90
63537;DHT22;49686;51.880;5.632;2024-03-17T15:31:32;14.50;99.90
63537;DHT22;49686;51.880;5.632;2024-03-17T15:33:59;14.40;99.90
63537;DHT22;49686;51.880;5.632;2024-03-17T15:36:26;14.40;99.90
63537;DHT22;49686;51.880;5.632;2024-03-17T15:38:55;14.40;99.90
63537;DHT22;49686;51.880;5.632;2024-03-17T15:41:21;14.50;99.90
63537;DHT22;49686;51.880;5.632;2024-03-17T15:43:48;14.50;99.90
63537;DHT22;49686;51.880;5.632;2024-03-17T15:46:20;14.50;99.90
63537;DHT22;49686;51.880;5.632;2024-03-17T15:48:48;14.50;99.90
63537;DHT22;49686;51.880;5.632;2024-03-17T15:51:16;14.40;99.90
63537;DHT22;49686;51.880;5.632;2024-03-17T15:53:44;14.40;99.90
63537;DHT22;49686;51.880;5.632;2024-03-17T15:56:11;14.40;99.90
63537;DHT22;49686;51.880;5.632;2024-03-17T15:58:38;14.40;99.90
63537;DHT22;49686;51.880;5.632;2024-03-17T16:01:07;14.30;99.90
63537;DHT22;49686;51.880;5.632;2024-03-17T16:03:37;14.20;99.90
63537;DHT22;49686;51.880;5.632;2024-03-17T16:06:09;14.10;99.90
63537;DHT22;49686;51.880;5.632;2024-03-17T16:08:39;14.10;99.90
63537;DHT22;49686;51.880;5.632;2024-03-17T16:11:08;14.10;99.90
63537;DHT22;49686;51.880;5.632;2024-03-17T16:13:43;14.00;99.90
63537;DHT22;49686;51.880;5.632;2024-03-17T16:16:15;14.00;99.90
63537;DHT22;49686;51.880;5.632;2024-03-17T16:18:43;13.90;99.90
63537;DHT22;49686;51.880;5.632;2024-03-17T16:21:17;13.90;99.90
63537;DHT22;49686;51.880;5.632;2024-03-17T16:23:48;13.90;99.90